Time;durP1;ratioP1;P1;durP2;ratioP2;P2;SDS_P1;SDS_P2;PMS_P1;PMS_P2;Temp;Humidity;BMP_temperature;BMP_pressure;BME280_temperature;BME280_humidity;BME280_pressure;Samples;Min_cycle;Max_cycle;Signal;HPM_P1;HPM_P2
2021/04/21 00:00:50;;;;;;;13.87;12.57;;;8.90;99.90;;;;;;5053816;28;20417;-74
2021/04/21 00:03:17;;;;;;;13.87;12.57;;;8.90;99.90;;;;;;5053349;28;20422;-75
2021/04/21 00:05:43;;;;;;;16.87;12.00;;;8.90;99.90;;;;;;5052233;28;20443;-75
2021/04/21 00:08:09;;;;;;;13.77;12.47;;;8.90;99.90;;;;;;5052254;28;20767;-75
2021/04/21 00:10:36;;;;;;;13.47;12.10;;;9.00;99.90;;;;;;5053343;28;20460;-75
2021/04/21 00:13:02;;;;;;;13.93;12.43;;;9.10;99.90;;;;;;5053198;28;20421;-75
2021/04/21 00:15:27;;;;;;;13.60;12.30;;;9.20;99.90;;;;;;5053474;28;20755;-75
2021/04/21 00:18:01;;;;;;;16.70;13.43;;;9.20;99.90;;;;;;5053029;28;20437;-75
2021/04/21 00:20:28;;;;;;;14.67;13.27;;;9.20;99.90;;;;;;5051999;28;20175;-75
2021/04/21 00:22:57;;;;;;;13.57;12.17;;;9.20;99.90;;;;;;5053175;28;20425;-75
2021/04/21 00:25:25;;;;;;;13.77;12.23;;;9.20;99.90;;;;;;5051621;28;20440;-75
2021/04/21 00:27:52;;;;;;;13.93;12.53;;;9.20;99.90;;;;;;5051924;28;20427;-75
2021/04/21 00:30:22;;;;;;;13.27;12.00;;;9.20;99.90;;;;;;5052688;28;20445;-75
2021/04/21 00:32:52;;;;;;;12.93;11.70;;;9.20;99.90;;;;;;5051701;28;20456;-75
2021/04/21 00:35:24;;;;;;;13.33;11.20;;;9.10;99.90;;;;;;5052760;28;20824;-75
2021/04/21 00:37:56;;;;;;;13.63;12.33;;;9.00;99.90;;;;;;5052898;28;20435;-75
2021/04/21 00:40:48;;;;;;;12.40;11.10;;;9.00;99.90;;;;;;5052662;28;20975;-75
2021/04/21 00:43:43;;;;;;;14.10;12.67;;;8.90;99.90;;;;;;5036722;28;20470;-75
2021/04/21 00:46:23;;;;;;;14.07;12.67;;;9.00;99.90;;;;;;5051268;28;20426;-75
2021/04/21 00:49:03;;;;;;;15.77;14.17;;;9.00;99.90;;;;;;5052532;28;20422;-75
2021/04/21 00:51:35;;;;;;;15.03;13.30;;;9.00;99.90;;;;;;5050694;28;20745;-74
2021/04/21 00:54:23;;;;;;;16.07;14.37;;;9.00;99.90;;;;;;5052460;28;20430;-74
2021/04/21 00:57:11;;;;;;;15.20;13.60;;;9.00;99.90;;;;;;5050580;28;20474;-75
2021/04/21 00:59:55;;;;;;;14.53;13.13;;;9.00;99.90;;;;;;5052340;28;20449;-75
2021/04/21 01:02:27;;;;;;;14.70;13.20;;;9.00;99.90;;;;;;5052417;28;20423;-75
2021/04/21 01:04:55;;;;;;;13.93;11.53;;;8.90;99.90;;;;;;5050780;28;20442;-75
2021/04/21 01:07:21;;;;;;;14.30;12.90;;;8.90;99.90;;;;;;5052469;28;20513;-75
2021/04/21 01:09:52;;;;;;;14.17;12.73;;;8.80;99.90;;;;;;5050420;28;20422;-74
2021/04/21 01:12:22;;;;;;;14.63;13.03;;;8.80;99.90;;;;;;5052368;28;20407;-75
2021/04/21 01:14:51;;;;;;;14.67;13.07;;;8.70;99.90;;;;;;5052093;28;20509;-74
2021/04/21 01:17:18;;;;;;;13.73;12.23;;;8.70;99.90;;;;;;5052007;28;20470;-74
2021/04/21 01:19:59;;;;;;;14.73;12.30;;;8.70;99.90;;;;;;5052048;28;20454;-75
2021/04/21 01:23:01;;;;;;;14.90;13.50;;;8.70;99.90;;;;;;5050294;28;20457;-75
2021/04/21 01:25:53;;;;;;;16.90;15.10;;;8.70;99.90;;;;;;5051969;28;20405;-75
2021/04/21 01:28:26;;;;;;;15.80;14.10;;;8.60;99.90;;;;;;5049229;28;20912;-75
2021/04/21 01:30:53;;;;;;;16.67;13.80;;;8.60;99.90;;;;;;5052038;28;20505;-75
2021/04/21 01:33:21;;;;;;;17.30;13.93;;;8.40;99.90;;;;;;5050465;28;20433;-75
2021/04/21 01:36:04;;;;;;;15.37;13.53;;;8.40;99.90;;;;;;5051323;28;20486;-75
2021/04/21 01:38:31;;;;;;;15.43;13.70;;;8.30;99.90;;;;;;5051832;28;20450;-75
2021/04/21 01:41:01;;;;;;;17.57;15.77;;;8.20;99.90;;;;;;5051789;28;20410;-74
2021/04/21 01:43:38;;;;;;;17.00;15.30;;;8.10;99.90;;;;;;5050317;28;20520;-74
2021/04/21 01:46:05;;;;;;;14.43;12.93;;;8.00;99.90;;;;;;5050376;28;20417;-74
2021/04/21 01:48:34;;;;;;;18.87;14.27;;;8.00;99.90;;;;;;5049997;28;20576;-74
2021/04/21 01:51:07;;;;;;;17.70;15.37;;;8.00;99.90;;;;;;5051493;28;20418;-75
2021/04/21 01:53:36;;;;;;;16.80;14.37;;;8.00;99.90;;;;;;5051658;28;20415;-74
2021/04/21 01:56:12;;;;;;;16.40;14.57;;;7.90;99.90;;;;;;5051516;28;20472;-74
2021/04/21 01:58:50;;;;;;;16.00;13.40;;;7.90;99.90;;;;;;5051735;28;20414;-74
2021/04/21 02:01:21;;;;;;;16.50;14.13;;;7.80;99.90;;;;;;5051175;28;20414;-75
2021/04/21 02:03:54;;;;;;;16.57;14.50;;;7.80;99.90;;;;;;5055329;28;20433;-75
2021/04/21 02:06:39;;;;;;;16.70;14.97;;;7.80;99.90;;;;;;5055889;28;20414;-75
2021/04/21 02:09:42;;;;;;;18.73;14.77;;;7.70;99.90;;;;;;5054394;28;20434;-75
2021/04/21 02:12:07;;;;;;;18.10;15.27;;;7.70;99.90;;;;;;5055549;28;20440;-75
2021/04/21 02:14:51;;;;;;;17.93;15.20;;;7.60;99.90;;;;;;5055143;28;20823;-75
2021/04/21 02:17:32;;;;;;;21.03;15.43;;;7.70;99.90;;;;;;5054003;28;20226;-74
2021/04/21 02:20:05;;;;;;;17.53;15.60;;;7.70;99.90;;;;;;5055405;28;20476;-75
2021/04/21 02:22:40;;;;;;;17.17;15.23;;;7.70;99.90;;;;;;5054031;28;20422;-75
2021/04/21 02:25:27;;;;;;;17.10;14.60;;;7.70;99.90;;;;;;5055292;28;20410;-75
2021/04/21 02:28:06;;;;;;;15.47;13.67;;;7.60;99.90;;;;;;5054925;28;20407;-75
2021/04/21 02:31:05;;;;;;;17.87;14.70;;;7.50;99.90;;;;;;5055246;28;20766;-75
2021/04/21 02:33:43;;;;;;;16.07;14.03;;;7.40;99.90;;;;;;5044656;28;20454;-75
2021/04/21 02:36:12;;;;;;;17.40;15.60;;;7.40;99.90;;;;;;5054999;28;20988;-75
2021/04/21 02:38:58;;;;;;;18.83;14.40;;;7.40;99.90;;;;;;5054959;28;20810;-75
2021/04/21 02:41:41;;;;;;;18.00;15.77;;;7.40;99.90;;;;;;5053386;28;20422;-75
2021/04/21 02:44:24;;;;;;;17.33;15.27;;;7.40;99.90;;;;;;5053681;28;20430;-75
2021/04/21 02:47:06;;;;;;;17.83;14.70;;;7.40;99.90;;;;;;5055063;28;20440;-75
2021/04/21 02:49:44;;;;;;;17.10;15.30;;;7.50;99.90;;;;;;5053596;28;21068;-74
2021/04/21 02:52:35;;;;;;;20.63;16.67;;;7.50;99.90;;;;;;5053692;28;20433;-76
2021/04/21 02:55:25;;;;;;;22.50;16.57;;;7.50;99.90;;;;;;5054447;28;20406;-75
2021/04/21 02:57:57;;;;;;;18.40;15.80;;;7.50;99.90;;;;;;5054739;28;21002;-76
2021/04/21 03:00:34;;;;;;;18.20;16.30;;;7.50;99.90;;;;;;5054713;28;20434;-75
2021/04/21 03:03:20;;;;;;;18.87;16.70;;;7.60;99.90;;;;;;5053259;28;20433;-75
2021/04/21 03:05:50;;;;;;;17.10;15.27;;;7.60;99.90;;;;;;5054513;28;20422;-75
2021/04/21 03:08:24;;;;;;;19.67;16.13;;;7.60;99.90;;;;;;5054267;28;20473;-74
2021/04/21 03:10:58;;;;;;;18.90;15.60;;;7.60;99.90;;;;;;5053336;28;20410;-76
2021/04/21 03:13:33;;;;;;;19.70;16.53;;;7.60;99.90;;;;;;5052748;28;20492;-76
2021/04/21 03:16:06;;;;;;;19.67;16.93;;;7.60;99.90;;;;;;5052920;28;20465;-76
2021/04/21 03:18:34;;;;;;;18.37;15.40;;;7.60;99.90;;;;;;5053113;28;20427;-76
2021/04/21 03:21:02;;;;;;;19.30;16.00;;;7.60;99.90;;;;;;5054124;28;20414;-76
2021/04/21 03:23:30;;;;;;;19.00;16.20;;;7.50;99.90;;;;;;5053138;28;20501;-76
2021/04/21 03:26:00;;;;;;;20.93;17.33;;;7.50;99.90;;;;;;5054350;28;20493;-76
2021/04/21 03:28:29;;;;;;;20.70;17.60;;;7.50;99.90;;;;;;5054083;28;20804;-76
2021/04/21 03:31:00;;;;;;;19.57;17.10;;;7.60;99.90;;;;;;5054156;28;20417;-76
2021/04/21 03:33:59;;;;;;;20.03;16.70;;;7.60;99.90;;;;;;5053819;28;20801;-76
2021/04/21 03:36:26;;;;;;;21.60;18.00;;;7.60;99.90;;;;;;5048908;28;20522;-76
2021/04/21 03:38:52;;;;;;;18.77;16.80;;;7.60;99.90;;;;;;5053828;28;20886;-76
2021/04/21 03:41:18;;;;;;;22.43;15.47;;;7.50;99.90;;;;;;5052430;28;20414;-76
2021/04/21 03:43:45;;;;;;;23.47;17.90;;;7.40;99.90;;;;;;5053935;28;20410;-76
2021/04/21 03:46:12;;;;;;;20.73;17.40;;;7.40;99.90;;;;;;5053277;28;20429;-75
2021/04/21 03:48:39;;;;;;;21.90;18.27;;;7.40;99.90;;;;;;5053845;28;20414;-75
2021/04/21 03:51:06;;;;;;;21.33;18.80;;;7.40;99.90;;;;;;5053688;28;20506;-75
2021/04/21 03:53:37;;;;;;;21.73;18.40;;;7.30;99.90;;;;;;5053633;28;20422;-76
2021/04/21 03:56:07;;;;;;;22.90;18.50;;;7.40;99.90;;;;;;5052230;28;20551;-76
2021/04/21 03:58:33;;;;;;;23.20;18.20;;;7.40;99.90;;;;;;5053012;28;20418;-76
2021/04/21 04:01:12;;;;;;;21.00;17.27;;;7.40;99.90;;;;;;5052331;28;20489;-76
2021/04/21 04:03:39;;;;;;;19.63;16.70;;;7.20;99.90;;;;;;5053512;28;20932;-76
2021/04/21 04:06:12;;;;;;;22.83;16.20;;;7.10;99.90;;;;;;5053377;28;20468;-76
2021/04/21 04:09:01;;;;;;;21.60;16.73;;;6.90;99.90;;;;;;5053428;28;20418;-77
2021/04/21 04:11:47;;;;;;;26.03;19.70;;;6.80;99.90;;;;;;5053326;28;20815;-75
2021/04/21 04:14:22;;;;;;;21.02;18.73;;;6.80;99.90;;;;;;5052448;28;20495;-75
2021/04/21 04:16:54;;;;;;;25.80;19.90;;;7.00;99.90;;;;;;5051681;28;20211;-76
2021/04/21 04:19:20;;;;;;;28.90;20.10;;;7.10;99.90;;;;;;5052877;28;20402;-76
2021/04/21 04:21:53;;;;;;;24.90;19.23;;;7.20;99.90;;;;;;5052968;28;20414;-75
2021/04/21 04:24:21;;;;;;;21.37;17.73;;;7.30;99.90;;;;;;5053234;28;20437;-76
2021/04/21 04:26:48;;;;;;;22.10;18.67;;;7.40;99.90;;;;;;5040270;28;20511;-76
2021/04/21 04:29:14;;;;;;;26.83;21.43;;;7.60;99.90;;;;;;5046726;28;20425;-76
2021/04/21 04:31:41;;;;;;;29.30;21.17;;;7.60;99.90;;;;;;5047588;28;20534;-78
2021/04/21 04:34:09;;;;;;;22.67;19.50;;;7.70;99.90;;;;;;5050091;28;20180;-75
2021/04/21 04:36:38;;;;;;;25.67;21.70;;;7.70;99.90;;;;;;5049872;28;20525;-76
2021/04/21 04:39:06;;;;;;;24.63;19.30;;;7.70;99.90;;;;;;5063253;28;20475;-75
2021/04/21 04:41:32;;;;;;;24.73;19.43;;;7.60;99.90;;;;;;5071617;28;20425;-76
2021/04/21 04:43:59;;;;;;;27.90;21.60;;;7.60;99.90;;;;;;5055963;28;20429;-75
2021/04/21 04:46:29;;;;;;;28.10;21.23;;;7.70;99.90;;;;;;5053803;28;20421;-75
2021/04/21 04:49:07;;;;;;;37.93;24.07;;;7.70;99.90;;;;;;5051208;28;20433;-76
2021/04/21 04:51:36;;;;;;;30.50;23.10;;;7.70;99.90;;;;;;5067072;28;20471;-76
2021/04/21 04:54:04;;;;;;;26.10;19.47;;;7.80;99.90;;;;;;5071207;28;20437;-76
2021/04/21 04:56:33;;;;;;;26.87;22.13;;;7.70;99.90;;;;;;5071517;28;20473;-75
2021/04/21 04:59:02;;;;;;;26.73;21.67;;;7.70;99.90;;;;;;5071229;28;20414;-76
2021/04/21 05:01:48;;;;;;;37.90;22.40;;;7.70;99.90;;;;;;5071387;28;20426;-76
2021/04/21 05:04:16;;;;;;;28.90;22.83;;;7.70;99.90;;;;;;5070773;28;20816;-74
2021/04/21 05:06:58;;;;;;;29.90;21.00;;;7.70;99.90;;;;;;5052238;28;20830;-77
2021/04/21 05:09:28;;;;;;;27.73;20.67;;;7.70;99.90;;;;;;5049507;28;20444;-76
2021/04/21 05:11:58;;;;;;;36.20;21.60;;;7.70;99.90;;;;;;5051156;28;20751;-75
2021/04/21 05:14:25;;;;;;;28.50;23.37;;;7.80;99.90;;;;;;5050701;28;20411;-74
2021/04/21 05:16:56;;;;;;;31.87;25.27;;;7.90;99.90;;;;;;5050225;28;20474;-75
2021/04/21 05:19:37;;;;;;;27.37;22.47;;;7.90;99.90;;;;;;5050584;28;20467;-74
2021/04/21 05:22:24;;;;;;;32.70;23.20;;;8.00;99.90;;;;;;5050436;28;20414;-73
2021/04/21 05:25:23;;;;;;;27.17;21.30;;;8.10;99.90;;;;;;5049701;28;20422;-75
2021/04/21 05:28:01;;;;;;;24.80;19.70;;;8.20;99.90;;;;;;5063342;28;20429;-75
2021/04/21 05:31:11;;;;;;;24.73;19.07;;;8.60;99.90;;;;;;5069448;28;20409;-75
2021/04/21 05:34:01;;;;;;;22.87;18.23;;;8.80;99.90;;;;;;5068699;28;20417;-75
2021/04/21 05:36:36;;;;;;;24.83;19.50;;;9.00;99.90;;;;;;5070223;28;20476;-75
2021/04/21 05:39:39;;;;;;;25.73;18.70;;;9.30;99.90;;;;;;5070873;28;20450;-75
2021/04/21 05:42:31;;;;;;;24.73;19.20;;;9.50;99.90;;;;;;5069239;28;20433;-74
2021/04/21 05:45:27;;;;;;;34.10;25.70;;;9.60;99.90;;;;;;5069039;28;20422;-76
2021/04/21 05:48:13;;;;;;;29.37;22.60;;;9.80;99.90;;;;;;5058072;28;20452;-77
2021/04/21 05:51:12;;;;;;;22.60;19.47;;;9.90;99.90;;;;;;5029102;28;20887;-75
2021/04/21 05:53:56;;;;;;;23.70;21.23;;;10.00;99.90;;;;;;5029355;28;20439;-74
2021/04/21 05:56:59;;;;;;;26.93;20.57;;;10.20;99.90;;;;;;5029288;28;20485;-75
2021/04/21 05:59:55;;;;;;;26.33;23.63;;;10.20;99.90;;;;;;5030677;28;20930;-75
2021/04/21 06:02:24;;;;;;;21.90;18.57;;;10.40;99.90;;;;;;5029780;28;20512;-75
2021/04/21 06:05:06;;;;;;;23.13;18.80;;;10.60;99.90;;;;;;5031196;28;20477;-75
2021/04/21 06:07:32;;;;;;;26.90;21.70;;;10.80;99.90;;;;;;5029442;28;20442;-75
2021/04/21 06:09:58;;;;;;;23.20;20.00;;;11.00;99.90;;;;;;5030236;28;20404;-76
2021/04/21 06:12:24;;;;;;;21.07;18.80;;;11.20;99.90;;;;;;5030493;28;20258;-75
2021/04/21 06:14:55;;;;;;;27.40;20.47;;;11.60;99.90;;;;;;5030609;28;20188;-76
2021/04/21 06:17:25;;;;;;;21.50;18.50;;;11.80;99.90;;;;;;5030349;28;20850;-76
2021/04/21 06:19:52;;;;;;;20.73;18.63;;;11.90;99.50;;;;;;5030936;28;21106;-76
2021/04/21 06:22:30;;;;;;;20.30;18.40;;;11.70;97.60;;;;;;5029888;28;20415;-76
2021/04/21 06:25:14;;;;;;;20.40;18.20;;;12.00;99.90;;;;;;5029093;28;20592;-76
2021/04/21 06:27:41;;;;;;;27.60;18.47;;;12.30;96.20;;;;;;5055812;28;20402;-74
2021/04/21 06:30:08;;;;;;;20.77;18.70;;;12.50;90.50;;;;;;5070692;28;20462;-76
2021/04/21 06:32:34;;;;;;;19.83;17.73;;;12.70;87.10;;;;;;5070407;28;20424;-76
2021/04/21 06:35:08;;;;;;;20.33;17.00;;;13.00;81.10;;;;;;5070638;28;20468;-76
2021/04/21 06:37:35;;;;;;;17.77;16.00;;;13.20;67.60;;;;;;5070010;28;20976;-76
2021/04/21 06:40:05;;;;;;;19.10;17.13;;;13.60;54.30;;;;;;5070378;28;20425;-77
2021/04/21 06:42:31;;;;;;;19.43;17.43;;;13.80;35.20;;;;;;5070358;28;20465;-76
2021/04/21 06:44:57;;;;;;;19.30;17.60;;;14.60;33.30;;;;;;5070322;28;20445;-73
2021/04/21 06:47:25;;;;;;;21.53;17.13;;;14.90;1.00;;;;;;5070132;28;20183;-75
2021/04/21 06:50:17;;;;;;;24.67;17.60;;;15.20;1.00;;;;;;5071902;28;20858;-75
2021/04/21 06:52:44;;;;;;;28.00;19.87;;;15.30;1.00;;;;;;5071986;28;20508;-75
2021/04/21 06:55:11;;;;;;;21.67;19.20;;;15.80;1.00;;;;;;5075051;28;20503;-75
2021/04/21 06:57:36;;;;;;;21.80;18.13;;;15.60;1.00;;;;;;5075074;28;20538;-74
2021/04/21 07:00:06;;;;;;;21.13;19.23;;;15.70;1.00;;;;;;5073700;28;21260;-76
2021/04/21 07:02:43;;;;;;;20.20;18.10;;;16.00;99.90;;;;;;5074285;28;20179;-75
2021/04/21 07:05:30;;;;;;;20.80;18.77;;;16.00;99.90;;;;;;5073965;28;20433;-76
2021/04/21 07:08:15;;;;;;;22.97;20.97;;;16.70;99.90;;;;;;5052689;28;20426;-75
2021/04/21 07:10:51;;;;;;;22.67;20.63;;;16.80;99.90;;;;;;5053441;28;20429;-76
2021/04/21 07:13:35;;;;;;;23.73;21.43;;;16.80;99.90;;;;;;5054701;28;20422;-75
2021/04/21 07:16:03;;;;;;;20.97;19.07;;;17.10;99.90;;;;;;5054713;28;20478;-75
2021/04/21 07:18:37;;;;;;;21.10;19.23;;;17.10;1.00;;;;;;5054965;28;20422;-74
2021/04/21 07:21:05;;;;;;;22.47;20.40;;;17.60;1.00;;;;;;5053634;28;20450;-76
2021/04/21 07:23:32;;;;;;;22.00;20.10;;;17.50;1.00;;;;;;5054663;28;20438;-75
2021/04/21 07:25:59;;;;;;;20.93;19.13;;;17.50;1.00;;;;;;5054317;28;20411;-76
2021/04/21 07:28:25;;;;;;;21.20;19.40;;;17.90;1.00;;;;;;5056955;28;20414;-75
2021/04/21 07:30:53;;;;;;;21.43;19.83;;;18.50;99.90;;;;;;5054329;28;20415;-75
2021/04/21 07:33:36;;;;;;;23.33;21.27;;;18.50;99.90;;;;;;5052900;28;20954;-75
2021/04/21 07:36:22;;;;;;;22.80;20.90;;;18.50;99.90;;;;;;5053967;28;20484;-76
2021/04/21 07:38:52;;;;;;;23.20;21.20;;;18.40;99.90;;;;;;5054219;28;20414;-76
2021/04/21 07:41:40;;;;;;;20.50;18.50;;;18.70;4.20;;;;;;5053951;28;20419;-76
2021/04/21 07:44:24;;;;;;;24.10;22.03;;;19.60;1.00;;;;;;5052931;28;20423;-75
2021/04/21 07:47:05;;;;;;;24.10;21.90;;;20.30;1.00;;;;;;5052597;28;20418;-76
2021/04/21 07:49:35;;;;;;;21.13;18.90;;;19.80;1.00;;;;;;5053906;28;20476;-76
2021/04/21 07:52:00;;;;;;;21.50;19.23;;;20.10;1.00;;;;;;5052730;28;20526;-76
2021/04/21 07:54:28;;;;;;;23.57;20.00;;;20.60;1.00;;;;;;5053643;28;20505;-76
2021/04/21 07:57:03;;;;;;;21.30;19.40;;;20.30;1.00;;;;;;5054199;28;20212;-74
2021/04/21 07:59:38;;;;;;;20.70;18.90;;;20.70;99.90;;;;;;5053078;28;20406;-74
2021/04/21 08:02:21;;;;;;;20.50;18.63;;;21.00;99.90;;;;;;5051825;28;20417;-73
2021/04/21 08:04:56;;;;;;;23.57;19.87;;;20.70;99.90;;;;;;5053100;28;20425;-74
2021/04/21 08:07:54;;;;;;;22.50;20.17;;;20.40;99.90;;;;;;5051934;28;20851;-74
2021/04/21 08:10:28;;;;;;;22.93;20.53;;;20.40;99.90;;;;;;5052757;28;20402;-74
2021/04/21 08:12:56;;;;;;;25.13;19.67;;;20.40;99.90;;;;;;5052985;28;20467;-74
2021/04/21 08:15:31;;;;;;;20.23;18.43;;;20.50;99.90;;;;;;5052964;28;20835;-74
2021/04/21 08:17:58;;;;;;;23.40;21.00;;;21.40;99.90;;;;;;5050200;28;20473;-75
2021/04/21 08:20:35;;;;;;;20.80;19.20;;;21.20;99.90;;;;;;5052336;28;20419;-75
2021/04/21 08:23:04;;;;;;;22.37;20.07;;;21.00;99.90;;;;;;5051025;28;20719;-75
2021/04/21 08:25:30;;;;;;;21.47;19.67;;;21.40;99.90;;;;;;5052621;28;20426;-76
2021/04/21 08:27:56;;;;;;;21.20;19.50;;;20.60;99.90;;;;;;5066850;28;20430;-75
2021/04/21 08:30:23;;;;;;;21.80;20.10;;;20.70;99.90;;;;;;5052452;28;20430;-74
2021/04/21 08:32:49;;;;;;;21.80;20.10;;;20.90;99.90;;;;;;5068344;28;20445;-74
2021/04/21 08:35:16;;;;;;;21.73;20.03;;;21.10;99.90;;;;;;5052246;28;20458;-74
2021/04/21 08:37:42;;;;;;;22.27;20.37;;;22.00;99.90;;;;;;5051172;28;20310;-75
2021/04/21 08:40:10;;;;;;;23.07;21.37;;;22.80;99.90;;;;;;5052905;28;20936;-73
2021/04/21 08:42:41;;;;;;;21.53;19.83;;;22.20;99.90;;;;;;5053084;28;20402;-75
2021/04/21 08:45:08;;;;;;;21.50;19.57;;;21.70;99.90;;;;;;5052954;28;20414;-75
2021/04/21 08:47:35;;;;;;;22.60;20.87;;;22.20;99.90;;;;;;5052530;28;20480;-74
2021/04/21 08:50:01;;;;;;;21.10;19.40;;;21.90;99.90;;;;;;5052846;28;20411;-74
2021/04/21 08:52:35;;;;;;;22.10;20.40;;;21.90;99.90;;;;;;5052420;28;20413;-75
2021/04/21 08:55:02;;;;;;;22.00;20.30;;;21.60;99.90;;;;;;5067880;28;20932;-75
2021/04/21 08:57:28;;;;;;;20.13;18.53;;;21.70;99.90;;;;;;5052473;28;20520;-75
2021/04/21 08:59:54;;;;;;;21.00;19.40;;;22.10;99.90;;;;;;5067496;28;20498;-74
2021/04/21 09:02:20;;;;;;;18.53;17.13;;;21.90;99.90;;;;;;5052496;28;20422;-75
2021/04/21 09:04:46;;;;;;;17.67;16.37;;;21.90;99.90;;;;;;5067648;28;20509;-74
2021/04/21 09:07:11;;;;;;;18.80;17.30;;;21.20;99.90;;;;;;5052314;28;20199;-74
2021/04/21 09:09:37;;;;;;;15.60;14.40;;;21.40;99.90;;;;;;5052497;28;20259;-75
2021/04/21 09:12:05;;;;;;;16.73;15.37;;;22.20;99.90;;;;;;5050916;28;20184;-74
2021/04/21 09:14:31;;;;;;;17.67;16.27;;;22.50;99.90;;;;;;5049273;28;20197;-75
2021/04/21 09:16:58;;;;;;;18.70;17.30;;;22.60;99.90;;;;;;5051836;28;21098;-75
2021/04/21 09:19:24;;;;;;;18.13;16.67;;;22.50;99.90;;;;;;5052865;28;20422;-76
2021/04/21 09:22:10;;;;;;;16.07;14.70;;;22.70;99.90;;;;;;5052030;28;20877;-76
2021/04/21 09:24:39;;;;;;;15.47;14.17;;;22.60;99.90;;;;;;5050933;28;20933;-75
2021/04/21 09:27:26;;;;;;;17.97;16.47;;;22.80;99.90;;;;;;5051590;28;20468;-76
2021/04/21 09:30:12;;;;;;;16.33;15.03;;;22.30;99.90;;;;;;5033699;28;20510;-75
2021/04/21 09:32:47;;;;;;;15.43;14.03;;;22.80;99.90;;;;;;5044928;28;20944;-75
2021/04/21 09:35:23;;;;;;;16.80;15.50;;;22.30;99.90;;;;;;5040440;28;20497;-75
2021/04/21 09:37:52;;;;;;;17.17;15.87;;;22.30;99.90;;;;;;5048305;28;20474;-75
2021/04/21 09:40:42;;;;;;;19.37;17.73;;;22.40;99.90;;;;;;5050102;28;20415;-76
2021/04/21 09:43:14;;;;;;;31.73;29.60;;;23.20;99.90;;;;;;5049853;28;20451;-76
2021/04/21 09:45:46;;;;;;;18.20;16.80;;;24.20;99.90;;;;;;5050712;28;20413;-75
2021/04/21 09:48:13;;;;;;;16.27;15.03;;;22.70;99.90;;;;;;5058625;28;20517;-76
2021/04/21 09:50:40;;;;;;;18.40;17.00;;;22.60;99.90;;;;;;5054425;28;20437;-75
2021/04/21 09:53:37;;;;;;;17.17;15.80;;;23.20;99.90;;;;;;5050181;28;20960;-76
2021/04/21 09:56:12;;;;;;;18.37;17.03;;;22.70;99.90;;;;;;5048378;28;20431;-75
2021/04/21 09:58:48;;;;;;;20.50;19.00;;;22.50;99.90;;;;;;5050307;28;20426;-75
2021/04/21 10:01:21;;;;;;;19.37;17.93;;;23.00;99.90;;;;;;5049414;28;20421;-77
2021/04/21 10:04:03;;;;;;;25.03;22.67;;;22.50;99.90;;;;;;5050345;28;20430;-77
2021/04/21 10:06:28;;;;;;;18.40;17.00;;;22.50;99.90;;;;;;5050209;28;20430;-77
2021/04/21 10:08:54;;;;;;;20.10;18.60;;;23.00;99.90;;;;;;5050228;28;20941;-76
2021/04/21 10:11:19;;;;;;;18.60;17.10;;;23.00;99.90;;;;;;5050271;28;20172;-76
2021/04/21 10:13:48;;;;;;;17.20;15.90;;;22.70;99.90;;;;;;5049202;28;20176;-76
2021/04/21 10:16:14;;;;;;;16.93;15.63;;;23.20;99.90;;;;;;5049997;28;20924;-76
2021/04/21 10:18:42;;;;;;;17.27;15.80;;;22.50;99.90;;;;;;5049846;28;20457;-76
2021/04/21 10:21:08;;;;;;;18.40;16.63;;;21.80;99.90;;;;;;5050314;28;20429;-74
2021/04/21 10:23:35;;;;;;;14.87;13.70;;;22.30;99.90;;;;;;5048444;28;20490;-75
2021/04/21 10:26:06;;;;;;;14.87;13.70;;;22.70;99.90;;;;;;5051030;28;20426;-75
2021/04/21 10:28:32;;;;;;;18.07;16.70;;;23.00;99.90;;;;;;5052469;28;20968;-75
2021/04/21 10:31:01;;;;;;;17.23;15.93;;;23.50;99.90;;;;;;5064366;28;20811;-76
2021/04/21 10:33:27;;;;;;;14.20;13.10;;;23.30;99.90;;;;;;5071308;28;20429;-75
2021/04/21 10:35:54;;;;;;;16.37;14.97;;;23.20;99.90;;;;;;5072039;28;20549;-75
2021/04/21 10:38:23;;;;;;;17.20;16.00;;;23.40;99.90;;;;;;5065170;28;20504;-76
2021/04/21 10:40:49;;;;;;;17.23;15.93;;;23.60;99.90;;;;;;5052278;28;20790;-75
2021/04/21 10:43:14;;;;;;;15.90;14.77;;;23.80;99.90;;;;;;5065085;28;20421;-74
2021/04/21 10:45:51;;;;;;;16.50;15.13;;;23.90;99.90;;;;;;5072480;28;20457;-74
2021/04/21 10:48:40;;;;;;;16.97;15.67;;;23.80;99.90;;;;;;5075676;28;20182;-74
2021/04/21 10:51:33;;;;;;;18.57;17.13;;;22.20;99.90;;;;;;5074181;28;20415;-75
2021/04/21 10:54:03;;;;;;;17.33;15.97;;;21.60;99.90;;;;;;5073327;28;20764;-74
2021/04/21 10:56:30;;;;;;;16.73;15.07;;;21.80;99.90;;;;;;5074594;28;20508;-74
2021/04/21 10:58:57;;;;;;;15.33;14.23;;;22.60;99.90;;;;;;5073590;28;20425;-75
2021/04/21 11:01:37;;;;;;;16.30;15.00;;;22.60;99.90;;;;;;5074751;28;20416;-75
2021/04/21 11:04:05;;;;;;;15.50;14.30;;;23.10;99.90;;;;;;5074452;28;20421;-75
2021/04/21 11:06:39;;;;;;;15.60;14.50;;;23.10;99.90;;;;;;5073625;28;20401;-75
2021/04/21 11:09:09;;;;;;;16.63;15.40;;;23.30;99.90;;;;;;5074513;28;20992;-74
2021/04/21 11:11:47;;;;;;;16.00;14.80;;;23.20;99.90;;;;;;5078652;28;20455;-75
2021/04/21 11:14:37;;;;;;;15.93;14.63;;;23.30;99.90;;;;;;5073682;28;20425;-75
2021/04/21 11:17:07;;;;;;;15.70;14.50;;;23.20;99.90;;;;;;5075097;28;20479;-75
2021/04/21 11:19:40;;;;;;;16.23;15.00;;;23.50;99.90;;;;;;5076716;28;20438;-75
2021/04/21 11:22:28;;;;;;;15.33;14.13;;;23.50;99.90;;;;;;5075388;28;20508;-75
2021/04/21 11:25:22;;;;;;;15.10;14.07;;;23.10;99.90;;;;;;5074856;28;20408;-75
2021/04/21 11:27:48;;;;;;;15.63;14.53;;;21.90;99.90;;;;;;5074910;28;20480;-76
2021/04/21 11:30:32;;;;;;;16.37;15.07;;;21.40;99.90;;;;;;5075458;28;20431;-75
2021/04/21 11:32:58;;;;;;;15.17;13.97;;;21.40;99.90;;;;;;5075172;28;20233;-76
2021/04/21 11:35:32;;;;;;;14.73;13.53;;;20.50;99.90;;;;;;5073971;28;20956;-74
2021/04/21 11:37:59;;;;;;;15.17;13.90;;;20.50;99.90;;;;;;5074812;28;20522;-75
2021/04/21 11:40:32;;;;;;;16.10;14.70;;;20.30;99.90;;;;;;5074137;28;20928;-75
2021/04/21 11:43:17;;;;;;;14.90;13.60;;;20.40;99.90;;;;;;5074143;28;20429;-75
2021/04/21 11:45:43;;;;;;;14.53;13.03;;;19.40;99.90;;;;;;5074669;28;20406;-76
2021/04/21 11:48:09;;;;;;;15.63;14.33;;;19.50;99.90;;;;;;5076962;28;20413;-76
2021/04/21 11:50:36;;;;;;;15.27;13.87;;;19.70;99.90;;;;;;5074659;28;20471;-76
2021/04/21 11:53:14;;;;;;;13.10;12.00;;;20.10;99.90;;;;;;5073159;28;20274;-76
2021/04/21 11:56:06;;;;;;;13.73;12.53;;;19.70;99.90;;;;;;5070150;28;20429;-76
2021/04/21 11:58:36;;;;;;;12.93;11.83;;;19.30;99.90;;;;;;5054096;28;21062;-76
2021/04/21 12:01:07;;;;;;;11.33;10.33;;;19.70;99.90;;;;;;5058440;28;20781;-75
2021/04/21 12:03:41;;;;;;;10.53;9.63;;;19.60;99.90;;;;;;5053117;28;20476;-74
2021/04/21 12:06:09;;;;;;;9.77;8.97;;;19.20;99.90;;;;;;5053403;28;20493;-75
2021/04/21 12:08:49;;;;;;;10.30;9.50;;;19.60;99.90;;;;;;5053540;28;20426;-74
2021/04/21 12:11:26;;;;;;;8.60;7.90;;;19.40;99.90;;;;;;5054217;28;20426;-74
2021/04/21 12:13:52;;;;;;;9.60;8.70;;;19.90;99.90;;;;;;5053402;28;20436;-75
2021/04/21 12:16:23;;;;;;;9.33;8.43;;;20.10;99.90;;;;;;5054927;28;20462;-74
2021/04/21 12:18:54;;;;;;;10.43;9.63;;;20.30;99.90;;;;;;5053294;28;20258;-77
2021/04/21 12:21:21;;;;;;;11.47;8.63;;;20.30;99.90;;;;;;5053394;28;20805;-74
2021/04/21 12:23:49;;;;;;;11.30;10.30;;;20.40;99.90;;;;;;5053321;28;20430;-74
2021/04/21 12:26:26;;;;;;;11.13;9.90;;;20.40;99.90;;;;;;5052359;28;21007;-76
2021/04/21 12:28:56;;;;;;;8.67;7.90;;;20.50;99.90;;;;;;5053190;28;20414;-75
2021/04/21 12:31:24;;;;;;;8.50;7.80;;;20.40;99.90;;;;;;5053338;28;20445;-77
2021/04/21 12:33:51;;;;;;;8.00;7.40;;;20.60;99.90;;;;;;5053034;28;20418;-74
2021/04/21 12:36:18;;;;;;;8.20;7.40;;;20.80;99.90;;;;;;5052879;28;20470;-75
2021/04/21 12:38:58;;;;;;;8.97;8.17;;;20.80;99.90;;;;;;5051343;28;20445;-75
2021/04/21 12:41:23;;;;;;;8.93;8.33;;;20.20;99.90;;;;;;5053282;28;20457;-75
2021/04/21 12:43:49;;;;;;;13.40;12.10;;;19.70;99.90;;;;;;5053051;28;20450;-75
2021/04/21 12:46:15;;;;;;;11.77;10.60;;;19.50;99.90;;;;;;5044392;28;20197;-75
2021/04/21 12:48:48;;;;;;;11.77;10.77;;;20.10;99.90;;;;;;5052070;28;20244;-74
2021/04/21 12:51:21;;;;;;;11.00;9.90;;;19.90;99.90;;;;;;5052488;28;20217;-75
2021/04/21 12:53:47;;;;;;;12.80;11.60;;;20.20;99.90;;;;;;5049692;28;20921;-76
2021/04/21 12:56:13;;;;;;;13.37;12.27;;;20.70;99.90;;;;;;5051695;28;20826;-78
2021/04/21 12:58:41;;;;;;;12.83;11.83;;;20.90;99.90;;;;;;5050399;28;20430;-75
2021/04/21 13:01:20;;;;;;;12.67;11.37;;;20.80;99.90;;;;;;5051126;28;20204;-76
2021/04/21 13:04:00;;;;;;;11.93;10.83;;;20.60;99.90;;;;;;5051193;28;20422;-76
2021/04/21 13:06:42;;;;;;;12.07;10.87;;;20.10;99.90;;;;;;5051224;28;20421;-75